Time;durP1;ratioP1;P1;durP2;ratioP2;P2;SDS_P1;SDS_P2;PMS_P1;PMS_P2;Temp;Humidity;BMP_temperature;BMP_pressure;BME280_temperature;BME280_humidity;BME280_pressure;Samples;Min_cycle;Max_cycle;Signal;HPM_P1;HPM_P2
2022/09/02 00:02:30;;;;;;;;;6.00;6.00;;;30.43;101125.23;;;;117525;1187;25453;-63
2022/09/02 00:04:58;;;;;;;;;8.75;8.75;;;30.42;101122.30;;;;117483;1189;25106;-62
2022/09/02 00:07:27;;;;;;;;;5.00;4.75;;;30.41;101124.92;;;;117474;1188;25640;-63
2022/09/02 00:09:55;;;;;;;;;8.67;7.00;;;30.41;101127.73;;;;117452;1188;25385;-64
2022/09/02 00:12:24;;;;;;;;;8.75;8.25;;;30.38;101122.85;;;;117441;1188;24822;-63
2022/09/02 00:14:52;;;;;;;;;13.25;9.50;;;30.38;101116.77;;;;117413;1189;24775;-64
2022/09/02 00:17:21;;;;;;;;;9.00;8.00;;;30.39;101114.69;;;;117500;1186;25841;-64
2022/09/02 00:19:49;;;;;;;;;7.00;6.33;;;30.37;101113.31;;;;117478;1188;24892;-63
2022/09/02 00:22:23;;;;;;;;;9.67;7.00;;;30.38;101117.16;;;;117836;1188;25101;-64
2022/09/02 00:24:51;;;;;;;;;8.00;7.75;;;30.38;101115.22;;;;117438;1187;25223;-64
2022/09/02 00:27:20;;;;;;;;;6.75;6.50;;;30.39;101117.52;;;;117456;1187;25222;-65
2022/09/02 00:29:48;;;;;;;;;8.00;7.67;;;30.38;101118.48;;;;117516;1188;25193;-69
2022/09/02 00:32:17;;;;;;;;;10.00;9.00;;;30.39;101126.77;;;;117561;1188;25301;-66
2022/09/02 00:34:45;;;;;;;;;6.00;4.33;;;30.38;101126.97;;;;117460;1189;24902;-70
2022/09/02 00:37:15;;;;;;;;;6.75;6.75;;;30.37;101123.96;;;;117536;1186;25419;-68
2022/09/02 00:39:43;;;;;;;;;8.00;7.50;;;30.36;101117.91;;;;117519;1188;25357;-65
2022/09/02 00:42:12;;;;;;;;;10.50;9.75;;;30.37;101119.10;;;;117582;1189;25171;-64
2022/09/02 00:44:41;;;;;;;;;10.00;7.75;;;30.39;101119.60;;;;117814;1187;25372;-64
2022/09/02 00:47:10;;;;;;;;;10.50;7.50;;;30.37;101121.98;;;;117495;1189;25084;-65
2022/09/02 00:49:39;;;;;;;;;8.50;7.50;;;30.38;101122.78;;;;117398;1189;25583;-64
2022/09/02 00:52:21;;;;;;;;;8.00;7.67;;;30.37;101121.60;;;;117466;1188;25157;-65
2022/09/02 00:54:53;;;;;;;;;7.50;6.75;;;30.38;101123.13;;;;117515;1187;25293;-64
2022/09/02 00:57:25;;;;;;;;;6.75;6.75;;;30.39;101128.85;;;;117663;1188;24886;-64
2022/09/02 01:00:08;;;;;;;;;10.00;7.75;;;30.41;101128.20;;;;117569;1188;25317;-64
2022/09/02 01:02:40;;;;;;;;;6.50;6.50;;;30.40;101133.98;;;;117617;1187;24790;-64
2022/09/02 01:05:11;;;;;;;;;9.00;8.33;;;30.38;101135.46;;;;117395;1190;24969;-64
2022/09/02 01:07:40;;;;;;;;;5.75;5.75;;;30.40;101135.34;;;;117760;1186;25351;-64
2022/09/02 01:10:16;;;;;;;;;7.75;7.75;;;30.39;101140.36;;;;117544;1186;25107;-63
2022/09/02 01:12:46;;;;;;;;;7.75;7.75;;;30.40;101148.77;;;;117498;1189;25323;-65
2022/09/02 01:15:15;;;;;;;;;7.75;4.50;;;30.40;101152.77;;;;117849;1187;25455;-65
2022/09/02 01:17:47;;;;;;;;;6.75;5.25;;;30.38;101159.31;;;;117566;1187;25322;-65
2022/09/02 01:20:20;;;;;;;;;8.25;7.25;;;30.39;101165.19;;;;117604;1188;25305;-65
2022/09/02 01:22:53;;;;;;;;;8.33;7.00;;;30.38;101169.81;;;;117481;1188;24776;-66
2022/09/02 01:25:26;;;;;;;;;7.25;6.50;;;30.37;101176.05;;;;117451;1189;25526;-66
2022/09/02 01:28:01;;;;;;;;;10.00;8.00;;;30.41;101175.96;;;;117639;1186;25419;-64
2022/09/02 01:30:31;;;;;;;;;6.00;5.50;;;30.37;101178.76;;;;117527;1187;25137;-63
2022/09/02 01:33:00;;;;;;;;;6.75;5.50;;;30.36;101182.71;;;;117798;1187;24929;-65
2022/09/02 01:35:30;;;;;;;;;9.50;8.25;;;30.32;101186.08;;;;117451;1188;25329;-64
2022/09/02 01:38:00;;;;;;;;;4.00;3.33;;;30.35;101183.55;;;;117400;1189;24791;-66
2022/09/02 01:40:30;;;;;;;;;9.50;8.00;;;30.35;101187.27;;;;117796;1186;24885;-65
2022/09/02 01:43:04;;;;;;;;;7.00;7.00;;;30.37;101189.88;;;;117440;1188;25042;-65
2022/09/02 01:45:37;;;;;;;;;6.25;4.50;;;30.39;101189.77;;;;117469;1189;25184;-65
2022/09/02 01:48:07;;;;;;;;;7.25;5.00;;;30.42;101185.48;;;;117708;1187;25256;-65
2022/09/02 01:50:42;;;;;;;;;7.50;6.50;;;30.37;101180.82;;;;117504;1188;25212;-65
2022/09/02 01:53:14;;;;;;;;;7.00;6.00;;;30.38;101181.45;;;;117670;1186;25448;-64
2022/09/02 01:55:43;;;;;;;;;6.25;5.75;;;30.38;101179.50;;;;117817;1188;25216;-64
2022/09/02 01:58:12;;;;;;;;;7.50;5.75;;;30.35;101177.42;;;;117613;1188;25131;-64
2022/09/02 02:00:40;;;;;;;;;6.50;6.00;;;30.34;101176.98;;;;117440;1188;25298;-64
2022/09/02 02:03:09;;;;;;;;;7.25;7.25;;;30.34;101179.05;;;;117443;1188;24901;-65
2022/09/02 02:05:37;;;;;;;;;9.50;8.25;;;30.31;101172.34;;;;117387;1186;25607;-65
2022/09/02 02:08:06;;;;;;;;;9.33;8.00;;;30.35;101175.36;;;;117467;1188;25429;-63
2022/09/02 02:10:35;;;;;;;;;7.67;7.33;;;30.33;101170.64;;;;117467;1188;24849;-65
2022/09/02 02:13:03;;;;;;;;;7.75;6.00;;;30.35;101171.06;;;;117477;1188;24834;-65
2022/09/02 02:15:32;;;;;;;;;7.00;7.00;;;30.35;101168.09;;;;117485;1188;24989;-65
2022/09/02 02:17:59;;;;;;;;;6.50;6.50;;;30.33;101172.14;;;;117451;1188;25118;-65
2022/09/02 02:20:28;;;;;;;;;6.00;6.00;;;30.31;101168.67;;;;117448;1187;25920;-65
2022/09/02 02:22:56;;;;;;;;;7.00;4.67;;;30.33;101167.08;;;;117439;1189;25234;-65
2022/09/02 02:25:25;;;;;;;;;7.00;7.00;;;30.32;101169.18;;;;117414;1188;24845;-64
2022/09/02 02:27:53;;;;;;;;;7.00;6.75;;;30.32;101167.30;;;;117583;1187;25266;-66
2022/09/02 02:30:23;;;;;;;;;6.00;5.00;;;30.31;101165.70;;;;117479;1188;24928;-63
2022/09/02 02:32:51;;;;;;;;;9.75;5.50;;;30.32;101168.34;;;;117494;1189;25232;-63
2022/09/02 02:35:20;;;;;;;;;8.33;7.33;;;30.32;101165.11;;;;117476;1188;24977;-63
2022/09/02 02:37:49;;;;;;;;;8.25;7.00;;;30.32;101164.89;;;;117555;1188;25447;-64
2022/09/02 02:40:20;;;;;;;;;8.00;6.00;;;30.35;101167.96;;;;117536;1187;25431;-65
2022/09/02 02:42:52;;;;;;;;;6.00;6.00;;;30.34;101168.11;;;;117897;1186;25724;-64
2022/09/02 02:45:22;;;;;;;;;6.33;6.00;;;30.34;101167.52;;;;117533;1188;24947;-63
2022/09/02 02:47:51;;;;;;;;;8.00;8.00;;;30.33;101172.96;;;;117792;1188;25121;-63
2022/09/02 02:50:21;;;;;;;;;6.67;6.67;;;30.35;101175.91;;;;117504;1188;25566;-62
2022/09/02 02:52:52;;;;;;;;;5.75;5.75;;;30.33;101177.17;;;;117484;1188;25105;-64
2022/09/02 02:55:22;;;;;;;;;6.00;5.00;;;30.35;101180.26;;;;117512;1188;24770;-62
2022/09/02 02:57:51;;;;;;;;;6.67;6.67;;;30.34;101181.52;;;;117458;1189;24846;-62
2022/09/02 03:00:26;;;;;;;;;8.75;6.50;;;30.34;101181.00;;;;117491;1187;25265;-63
2022/09/02 03:03:00;;;;;;;;;7.75;5.25;;;30.32;101182.75;;;;117652;1187;25186;-63
2022/09/02 03:05:30;;;;;;;;;6.00;6.00;;;30.35;101182.78;;;;117828;1186;24705;-65
2022/09/02 03:07:59;;;;;;;;;7.00;5.00;;;30.35;101184.62;;;;117880;1186;24872;-66
2022/09/02 03:10:27;;;;;;;;;7.50;6.75;;;30.34;101185.27;;;;117531;1188;25662;-66
2022/09/02 03:12:57;;;;;;;;;5.25;5.00;;;30.33;101185.52;;;;117519;1188;25225;-65
2022/09/02 03:15:26;;;;;;;;;9.50;8.25;;;30.29;101187.32;;;;117494;1188;25048;-64
2022/09/02 03:17:55;;;;;;;;;7.25;7.25;;;30.28;101188.50;;;;117489;1188;25992;-65
2022/09/02 03:20:24;;;;;;;;;7.00;5.67;;;30.27;101188.88;;;;117523;1188;25096;-65
2022/09/02 03:22:55;;;;;;;;;7.67;5.33;;;30.27;101189.73;;;;117438;1187;25214;-65
2022/09/02 03:25:25;;;;;;;;;6.00;6.00;;;30.28;101193.13;;;;117795;1187;25266;-65
2022/09/02 03:27:54;;;;;;;;;8.50;6.75;;;30.33;101197.05;;;;117425;1188;25310;-69
2022/09/02 03:30:26;;;;;;;;;5.25;5.25;;;30.34;101195.69;;;;117413;1188;25488;-68
2022/09/02 03:32:58;;;;;;;;;7.50;5.75;;;30.31;101194.21;;;;117523;1188;24963;-64
2022/09/02 03:35:32;;;;;;;;;6.50;4.00;;;30.36;101196.40;;;;117778;1186;24771;-64
2022/09/02 03:38:01;;;;;;;;;5.67;5.67;;;30.37;101198.96;;;;117499;1188;24937;-64
2022/09/02 03:40:29;;;;;;;;;4.00;4.00;;;30.34;101200.25;;;;117724;1188;24869;-65
2022/09/02 03:42:58;;;;;;;;;4.33;4.33;;;30.32;101204.86;;;;117324;1189;25508;-65
2022/09/02 03:45:28;;;;;;;;;5.00;5.00;;;30.30;101207.09;;;;117494;1187;25253;-67
2022/09/02 03:47:58;;;;;;;;;7.00;7.00;;;30.33;101208.33;;;;117482;1188;24786;-67
2022/09/02 03:50:30;;;;;;;;;6.50;5.25;;;30.31;101209.98;;;;117536;1188;25100;-66
2022/09/02 03:52:59;;;;;;;;;7.50;7.00;;;30.31;101215.73;;;;117801;1188;25391;-63
2022/09/02 03:55:28;;;;;;;;;5.00;5.00;;;30.30;101221.53;;;;117458;1188;25402;-65
2022/09/02 03:57:57;;;;;;;;;7.25;7.25;;;30.29;101221.23;;;;117562;1188;24787;-65
2022/09/02 04:00:32;;;;;;;;;9.25;8.75;;;30.30;101224.82;;;;117549;1188;25140;-65
2022/09/02 04:03:00;;;;;;;;;7.25;6.00;;;30.31;101225.35;;;;117765;1188;25679;-65
2022/09/02 04:05:30;;;;;;;;;5.50;5.50;;;30.31;101222.80;;;;117427;1188;25311;-63
2022/09/02 04:07:59;;;;;;;;;7.00;7.00;;;30.31;101224.46;;;;117517;1189;24714;-64
2022/09/02 04:10:27;;;;;;;;;6.33;5.00;;;30.28;101223.48;;;;117498;1188;25541;-63
2022/09/02 04:12:56;;;;;;;;;3.25;3.25;;;30.27;101220.95;;;;117483;1188;25009;-65
2022/09/02 04:15:25;;;;;;;;;7.33;7.33;;;30.28;101216.18;;;;117444;1188;25610;-63
2022/09/02 04:17:53;;;;;;;;;4.25;3.75;;;30.31;101216.02;;;;117453;1186;24789;-63
2022/09/02 04:20:21;;;;;;;;;5.00;5.00;;;30.30;101216.02;;;;117604;1187;25416;-62
2022/09/02 04:25:30;;;;;;;;;5.25;5.00;;;30.35;101224.30;;;;117889;1183;25345;-65
2022/09/02 04:27:59;;;;;;;;;7.00;6.33;;;30.51;101229.77;;;;117184;1191;24886;-64
2022/09/02 04:30:28;;;;;;;;;4.25;4.25;;;30.42;101231.10;;;;117099;1191;25510;-61
2022/09/02 04:32:56;;;;;;;;;7.50;6.75;;;30.41;101232.60;;;;117111;1191;24984;-66
2022/09/02 04:35:24;;;;;;;;;6.33;5.00;;;30.43;101238.20;;;;117198;1191;25196;-64
2022/09/02 04:37:53;;;;;;;;;5.25;5.25;;;30.32;101240.09;;;;117086;1191;25501;-64
2022/09/02 04:40:22;;;;;;;;;7.00;7.00;;;30.35;101239.52;;;;117049;1192;25143;-65
2022/09/02 04:42:52;;;;;;;;;6.75;6.25;;;30.35;101239.70;;;;117052;1192;25733;-64
2022/09/02 04:45:22;;;;;;;;;4.50;4.50;;;30.34;101244.40;;;;117080;1192;25631;-63
2022/09/02 04:47:56;;;;;;;;;6.00;5.50;;;30.33;101243.50;;;;117057;1191;25431;-62
2022/09/02 04:50:25;;;;;;;;;11.25;6.75;;;30.34;101239.92;;;;117059;1191;25149;-63
2022/09/02 04:52:54;;;;;;;;;5.75;5.75;;;30.31;101236.38;;;;117037;1192;26201;-63
2022/09/02 04:55:22;;;;;;;;;5.00;5.00;;;30.32;101233.59;;;;117132;1191;25673;-64
2022/09/02 04:57:51;;;;;;;;;8.75;6.00;;;30.35;101230.05;;;;117063;1191;24721;-64
2022/09/02 05:00:20;;;;;;;;;5.00;4.25;;;30.31;101233.78;;;;117026;1191;24906;-65
2022/09/02 05:02:49;;;;;;;;;8.00;5.00;;;30.30;101240.73;;;;117383;1191;25014;-66
2022/09/02 05:05:18;;;;;;;;;8.67;5.33;;;30.34;101242.84;;;;117056;1191;25326;-62
2022/09/02 05:07:46;;;;;;;;;6.33;5.00;;;30.31;101243.38;;;;117103;1190;25991;-62
2022/09/02 05:10:14;;;;;;;;;5.00;5.00;;;30.32;101243.39;;;;117044;1191;25513;-68
2022/09/02 05:12:43;;;;;;;;;9.00;6.00;;;30.32;101249.91;;;;117033;1190;25594;-68
2022/09/02 05:15:11;;;;;;;;;4.33;4.33;;;30.30;101246.48;;;;116955;1191;25483;-68
2022/09/02 05:17:41;;;;;;;;;7.50;5.00;;;30.34;101249.06;;;;116951;1191;25307;-69
2022/09/02 05:20:09;;;;;;;;;3.33;3.33;;;30.34;101251.82;;;;117183;1192;25589;-69
2022/09/02 05:22:39;;;;;;;;;8.50;5.00;;;30.32;101253.05;;;;117008;1192;25347;-68
2022/09/02 05:25:09;;;;;;;;;7.33;5.67;;;30.27;101249.14;;;;117053;1191;25217;-69
2022/09/02 05:27:38;;;;;;;;;8.33;6.00;;;30.25;101251.52;;;;117148;1189;25616;-68
2022/09/02 05:30:07;;;;;;;;;5.75;5.75;;;30.27;101246.83;;;;117111;1190;25334;-70
2022/09/02 05:32:35;;;;;;;;;7.67;4.00;;;30.27;101248.58;;;;117033;1192;24870;-68
2022/09/02 05:35:05;;;;;;;;;6.25;5.00;;;30.26;101247.32;;;;117110;1192;25528;-69
2022/09/02 05:37:34;;;;;;;;;8.00;5.00;;;30.24;101247.69;;;;117009;1192;25184;-71
2022/09/02 05:40:04;;;;;;;;;6.00;5.00;;;30.25;101250.77;;;;117090;1191;25241;-68
2022/09/02 05:42:34;;;;;;;;;5.67;5.33;;;30.24;101250.96;;;;117072;1191;24977;-71
2022/09/02 05:45:07;;;;;;;;;6.33;5.00;;;30.24;101251.17;;;;117047;1191;25435;-70
2022/09/02 05:47:36;;;;;;;;;8.25;4.00;;;30.23;101250.75;;;;117374;1190;25294;-68
2022/09/02 05:50:06;;;;;;;;;5.00;5.00;;;30.22;101255.76;;;;117391;1191;24768;-68
2022/09/02 05:52:34;;;;;;;;;4.00;3.50;;;30.22;101253.36;;;;117112;1191;25004;-69
2022/09/02 05:55:04;;;;;;;;;6.67;5.00;;;30.20;101253.42;;;;116979;1192;25479;-70
2022/09/02 05:57:32;;;;;;;;;8.25;5.25;;;30.21;101257.15;;;;116994;1192;25012;-68
2022/09/02 06:00:03;;;;;;;;;7.00;3.00;;;30.22;101251.91;;;;116982;1193;25564;-70
2022/09/02 06:02:31;;;;;;;;;8.00;6.25;;;30.22;101249.28;;;;117172;1191;25093;-70
2022/09/02 06:05:00;;;;;;;;;8.50;7.25;;;30.21;101246.30;;;;117037;1192;25464;-69
2022/09/02 06:07:29;;;;;;;;;5.00;5.00;;;30.19;101251.64;;;;117026;1191;24804;-69
2022/09/02 06:09:57;;;;;;;;;4.00;3.50;;;30.19;101248.34;;;;117333;1191;24927;-69
2022/09/02 06:12:26;;;;;;;;;6.00;3.33;;;30.19;101243.92;;;;117127;1191;25685;-71
2022/09/02 06:14:55;;;;;;;;;5.33;5.33;;;30.21;101253.10;;;;117059;1192;24840;-71
2022/09/02 06:17:23;;;;;;;;;8.00;6.67;;;30.22;101253.02;;;;116986;1191;25002;-73
2022/09/02 06:19:51;;;;;;;;;5.00;5.00;;;30.24;101258.30;;;;116934;1192;24801;-73
2022/09/02 06:22:20;;;;;;;;;6.00;4.00;;;30.20;101259.55;;;;117010;1191;25087;-75
2022/09/02 06:24:49;;;;;;;;;7.25;5.75;;;30.19;101261.52;;;;117128;1191;24886;-75
2022/09/02 06:27:17;;;;;;;;;2.00;2.00;;;30.18;101262.60;;;;117203;1192;24716;-76
2022/09/02 06:29:46;;;;;;;;;6.75;5.75;;;30.14;101263.92;;;;117369;1191;24867;-74
2022/09/02 06:32:15;;;;;;;;;5.50;4.75;;;29.99;101262.00;;;;117148;1190;25011;-73
2022/09/02 06:34:44;;;;;;;;;6.50;5.00;;;29.76;101263.41;;;;117074;1191;25204;-75
2022/09/02 06:37:12;;;;;;;;;5.33;5.33;;;29.84;101261.41;;;;117392;1191;25352;-77
2022/09/02 06:39:43;;;;;;;;;5.00;5.00;;;29.91;101263.94;;;;117059;1190;25191;-73
2022/09/02 06:42:12;;;;;;;;;9.00;5.75;;;29.94;101269.16;;;;117158;1190;25136;-64
2022/09/02 06:44:40;;;;;;;;;6.00;5.00;;;29.98;101268.14;;;;117085;1191;25298;-63
2022/09/02 06:47:09;;;;;;;;;3.00;3.00;;;30.12;101269.28;;;;117062;1191;24882;-65
2022/09/02 06:49:37;;;;;;;;;5.33;3.67;;;30.03;101265.80;;;;117000;1191;25442;-67
2022/09/02 06:52:06;;;;;;;;;5.00;5.00;;;30.03;101266.72;;;;117013;1192;25705;-65
2022/09/02 06:54:34;;;;;;;;;8.00;5.75;;;30.01;101266.42;;;;117090;1192;25194;-71
2022/09/02 06:57:03;;;;;;;;;7.00;5.25;;;30.04;101269.67;;;;117158;1191;25349;-76
2022/09/02 06:59:32;;;;;;;;;5.33;5.33;;;30.10;101273.03;;;;117140;1191;25488;-70
2022/09/02 07:02:02;;;;;;;;;5.00;5.00;;;30.14;101272.16;;;;117105;1192;24995;-67
2022/09/02 07:07:22;;;;;;;;;4.25;4.25;;;30.25;101279.66;;;;117166;1191;25499;-70
2022/09/02 07:09:52;;;;;;;;;6.33;4.33;;;30.24;101274.23;;;;117069;1192;25419;-67
2022/09/02 07:12:21;;;;;;;;;6.50;5.00;;;30.23;101274.28;;;;117157;1191;24954;-71
2022/09/02 07:14:49;;;;;;;;;5.33;5.33;;;30.15;101276.27;;;;117176;1191;25216;-66
2022/09/02 07:17:21;;;;;;;;;6.00;5.00;;;30.07;101270.10;;;;117018;1191;25347;-64
2022/09/02 07:19:50;;;;;;;;;9.67;6.00;;;29.96;101270.91;;;;117114;1192;25122;-62
2022/09/02 07:22:19;;;;;;;;;8.67;7.67;;;29.92;101269.49;;;;117006;1192;25087;-64
2022/09/02 07:24:47;;;;;;;;;7.00;7.00;;;29.91;101270.00;;;;117029;1191;25412;-64
2022/09/02 07:27:19;;;;;;;;;7.67;7.33;;;29.93;101274.78;;;;117053;1191;25048;-64
2022/09/02 07:29:48;;;;;;;;;7.75;7.25;;;29.83;101272.48;;;;117053;1191;26161;-62
2022/09/02 07:32:17;;;;;;;;;8.50;8.25;;;29.82;101266.05;;;;117108;1192;24879;-65
2022/09/02 07:34:46;;;;;;;;;8.25;8.25;;;29.76;101265.33;;;;117088;1191;24900;-61
2022/09/02 07:37:14;;;;;;;;;9.00;8.00;;;29.87;101271.86;;;;117046;1192;25273;-67
2022/09/02 07:39:44;;;;;;;;;7.75;7.75;;;29.89;101271.69;;;;117110;1190;25441;-67
2022/09/02 07:42:12;;;;;;;;;7.00;7.00;;;29.84;101275.15;;;;117103;1192;25794;-65
2022/09/02 07:44:41;;;;;;;;;6.00;6.00;;;29.91;101286.55;;;;117040;1191;24963;-64
2022/09/02 07:47:09;;;;;;;;;5.50;5.50;;;29.91;101274.42;;;;117066;1191;25667;-65
2022/09/02 07:49:39;;;;;;;;;5.50;5.50;;;29.89;101270.75;;;;117001;1192;24925;-69
2022/09/02 07:52:27;;;;;;;;;5.33;3.67;;;30.01;101268.46;;;;117320;1191;25723;-69
2022/09/02 07:54:56;;;;;;;;;6.00;5.25;;;30.07;101270.61;;;;117030;1190;25206;-69
2022/09/02 07:57:24;;;;;;;;;5.67;5.00;;;30.11;101262.79;;;;117135;1192;27083;-64
2022/09/02 07:59:53;;;;;;;;;4.67;4.67;;;30.17;101266.27;;;;117183;1190;25402;-64
2022/09/02 08:02:22;;;;;;;;;4.75;4.00;;;30.19;101264.28;;;;117186;1189;25098;-71
2022/09/02 08:04:51;;;;;;;;;7.75;4.25;;;30.43;101265.15;;;;117359;1191;24763;-64
2022/09/02 08:07:23;;;;;;;;;9.33;6.67;;;30.74;101266.81;;;;117109;1191;24693;-66
2022/09/02 08:09:52;;;;;;;;;6.33;6.33;;;30.79;101262.31;;;;117139;1191;25569;-69
2022/09/02 08:12:20;;;;;;;;;11.33;7.00;;;30.57;101264.85;;;;117189;1190;25363;-68
2022/09/02 08:14:49;;;;;;;;;15.00;7.50;;;30.63;101267.02;;;;117086;1192;25461;-65
2022/09/02 08:17:18;;;;;;;;;10.00;5.50;;;30.50;101268.77;;;;117067;1193;25511;-68
2022/09/02 08:19:47;;;;;;;;;9.00;6.75;;;30.37;101264.71;;;;117094;1190;25579;-72
2022/09/02 08:22:16;;;;;;;;;9.50;5.00;;;30.32;101265.21;;;;117173;1191;25559;-66
2022/09/02 08:24:44;;;;;;;;;8.33;8.00;;;30.08;101267.01;;;;117036;1193;24998;-64
2022/09/02 08:27:13;;;;;;;;;10.75;6.25;;;29.97;101265.41;;;;117093;1191;25027;-67
2022/09/02 08:29:41;;;;;;;;;8.50;4.25;;;29.92;101265.23;;;;117052;1193;24800;-67
2022/09/02 08:32:10;;;;;;;;;12.33;8.33;;;29.85;101270.69;;;;116992;1192;25199;-65
2022/09/02 08:34:38;;;;;;;;;7.25;5.00;;;29.80;101270.89;;;;117102;1192;24875;-68
2022/09/02 08:37:07;;;;;;;;;8.00;7.33;;;29.94;101260.94;;;;116996;1193;25105;-68
2022/09/02 08:39:37;;;;;;;;;8.00;7.25;;;30.02;101262.70;;;;117091;1192;25699;-71
2022/09/02 08:42:24;;;;;;;;;6.50;4.75;;;30.05;101266.89;;;;117006;1192;25111;-66
2022/09/02 08:44:55;;;;;;;;;11.00;6.75;;;30.14;101255.70;;;;117010;1193;25250;-71
2022/09/02 08:47:28;;;;;;;;;7.67;4.67;;;30.15;101260.72;;;;117191;1192;25459;-67
2022/09/02 08:50:00;;;;;;;;;7.75;5.75;;;30.21;101253.73;;;;117068;1192;25484;-71
2022/09/02 08:52:43;;;;;;;;;8.00;5.25;;;30.29;101252.11;;;;117088;1191;25099;-72
2022/09/02 08:55:18;;;;;;;;;10.00;6.00;;;30.33;101253.25;;;;116998;1193;25514;-70
2022/09/02 08:57:48;;;;;;;;;6.50;4.50;;;30.38;101254.67;;;;117071;1192;25069;-70
2022/09/02 09:00:16;;;;;;;;;7.50;4.75;;;30.39;101258.11;;;;117001;1193;25041;-68
2022/09/02 09:02:57;;;;;;;;;7.75;5.25;;;30.41;101253.05;;;;117031;1193;25496;-70
2022/09/02 09:05:38;;;;;;;;;5.25;5.25;;;30.40;101253.52;;;;117068;1191;25702;-71
2022/09/02 09:08:32;;;;;;;;;8.00;5.75;;;30.39;101254.81;;;;117020;1193;25528;-73
2022/09/02 09:11:04;;;;;;;;;5.67;2.67;;;30.44;101252.65;;;;117082;1192;25657;-67
2022/09/02 09:14:00;;;;;;;;;4.00;4.00;;;30.47;101253.98;;;;117071;1193;25441;-71
2022/09/02 09:16:42;;;;;;;;;7.00;6.00;;;30.48;101246.43;;;;117039;1192;25267;-66
2022/09/02 09:19:20;;;;;;;;;6.75;5.00;;;30.48;101244.98;;;;117017;1193;26158;-68
2022/09/02 09:21:48;;;;;;;;;6.00;5.00;;;30.49;101247.39;;;;117057;1193;24839;-66
2022/09/02 09:24:35;;;;;;;;;8.75;6.50;;;30.50;101243.39;;;;117014;1193;24924;-63
2022/09/02 09:27:10;;;;;;;;;6.00;6.00;;;30.52;101244.32;;;;117057;1193;25494;-67
2022/09/02 09:29:38;;;;;;;;;6.25;6.25;;;30.55;101244.53;;;;116960;1192;25563;-66
2022/09/02 09:32:22;;;;;;;;;8.25;3.25;;;30.63;101245.61;;;;116960;1193;25299;-65
2022/09/02 09:34:51;;;;;;;;;5.25;4.75;;;30.63;101236.07;;;;117050;1192;25534;-68
2022/09/02 09:37:40;;;;;;;;;9.50;7.75;;;30.66;101246.11;;;;117041;1191;25848;-65
2022/09/02 09:40:21;;;;;;;;;11.50;6.75;;;30.72;101244.70;;;;116962;1193;25064;-65
2022/09/02 09:43:04;;;;;;;;;10.75;6.50;;;30.40;101244.64;;;;117028;1192;25654;-74
2022/09/02 09:45:46;;;;;;;;;8.75;6.25;;;30.09;101245.31;;;;117038;1192;25401;-67
2022/09/02 09:48:26;;;;;;;;;9.50;5.00;;;29.85;101239.59;;;;117067;1192;25683;-70
2022/09/02 09:50:55;;;;;;;;;10.00;6.00;;;29.88;101238.15;;;;117024;1193;25597;-67
2022/09/02 09:53:35;;;;;;;;;7.50;6.50;;;29.83;101233.55;;;;117069;1192;25362;-69
2022/09/02 09:56:23;;;;;;;;;8.33;7.00;;;29.73;101237.96;;;;117021;1192;25587;-66
2022/09/02 09:58:52;;;;;;;;;9.67;6.33;;;29.71;101235.69;;;;117123;1192;25491;-70
2022/09/02 10:01:30;;;;;;;;;9.50;8.50;;;29.67;101232.52;;;;117040;1193;24962;-66
2022/09/02 10:04:08;;;;;;;;;10.50;8.25;;;29.41;101236.30;;;;117066;1192;24979;-72
2022/09/02 10:06:57;;;;;;;;;11.00;9.25;;;29.42;101192.90;;;;117051;1193;25272;-65
2022/09/02 10:09:36;;;;;;;;;8.50;8.00;;;29.38;101214.58;;;;117108;1192;25511;-67
2022/09/02 10:12:07;;;;;;;;;9.50;6.75;;;29.32;101237.54;;;;117087;1192;25555;-69
2022/09/02 10:14:47;;;;;;;;;6.75;6.25;;;29.17;101234.02;;;;117013;1193;24908;-70
2022/09/02 10:17:18;;;;;;;;;7.00;6.00;;;29.06;101228.52;;;;117078;1192;25697;-69
2022/09/02 10:20:06;;;;;;;;;7.67;6.67;;;28.95;101226.59;;;;117084;1193;25327;-66
2022/09/02 10:22:51;;;;;;;;;8.67;5.33;;;29.15;101229.19;;;;117117;1193;24913;-65
2022/09/02 10:25:56;;;;;;;;;8.25;6.75;;;29.03;101225.45;;;;117331;1189;24941;-69
2022/09/02 10:28:48;;;;;;;;;9.00;5.33;;;28.87;101219.35;;;;117133;1191;25342;-65
2022/09/02 10:31:33;;;;;;;;;5.00;2.00;;;28.76;101216.39;;;;117134;1190;25628;-64
2022/09/02 10:34:23;;;;;;;;;9.75;5.75;;;28.77;101219.91;;;;117110;1191;24878;-63
2022/09/02 10:37:04;;;;;;;;;6.33;6.33;;;28.68;101203.85;;;;117035;1191;25421;-68
2022/09/02 10:40:04;;;;;;;;;11.33;6.33;;;28.72;101217.73;;;;117026;1191;25681;-66
2022/09/02 10:43:01;;;;;;;;;7.25;4.75;;;28.81;101214.39;;;;117094;1192;25212;-65
2022/09/02 10:45:44;;;;;;;;;9.00;8.33;;;28.77;101213.38;;;;117241;1191;25423;-66
2022/09/02 10:48:19;;;;;;;;;9.00;7.00;;;28.81;101208.20;;;;118318;1192;24883;-64
2022/09/02 10:50:53;;;;;;;;;10.00;6.67;;;29.11;101215.80;;;;117014;1191;24917;-65
2022/09/02 10:53:31;;;;;;;;;9.00;7.00;;;28.98;101207.71;;;;117317;1191;24884;-63
2022/09/02 10:56:15;;;;;;;;;15.75;8.25;;;28.93;101214.21;;;;117029;1191;25133;-63
2022/09/02 10:59:06;;;;;;;;;13.33;7.67;;;28.82;101212.90;;;;117049;1191;25603;-63
2022/09/02 11:01:46;;;;;;;;;10.00;7.50;;;28.85;101205.55;;;;117131;1191;24986;-64
2022/09/02 11:04:36;;;;;;;;;8.67;6.33;;;28.82;101199.84;;;;117053;1191;25622;-62
2022/09/02 11:07:09;;;;;;;;;7.25;6.00;;;28.74;101195.95;;;;117312;1191;25004;-65
2022/09/02 11:09:59;;;;;;;;;7.00;6.50;;;28.51;101194.98;;;;117111;1192;25719;-66
2022/09/02 11:12:34;;;;;;;;;9.50;7.00;;;28.51;101194.47;;;;117100;1191;25584;-66
2022/09/02 11:15:17;;;;;;;;;6.25;4.50;;;28.56;101190.42;;;;117067;1191;25266;-66
2022/09/02 11:18:06;;;;;;;;;8.00;4.00;;;28.56;101187.38;;;;117264;1191;24778;-68
2022/09/02 11:21:00;;;;;;;;;6.33;5.67;;;28.56;101190.99;;;;117076;1191;24937;-65
2022/09/02 11:23:49;;;;;;;;;7.00;5.00;;;28.55;101186.02;;;;117082;1191;24931;-64
2022/09/02 11:26:41;;;;;;;;;9.75;5.75;;;28.55;101178.85;;;;117030;1191;25645;-66
2022/09/02 11:29:21;;;;;;;;;7.25;5.00;;;28.57;101173.44;;;;117091;1191;25596;-65
2022/09/02 11:32:01;;;;;;;;;6.33;5.00;;;28.55;101173.69;;;;117127;1191;25344;-65
2022/09/02 11:34:33;;;;;;;;;7.33;4.67;;;28.59;101177.46;;;;117020;1192;25181;-64
2022/09/02 11:37:27;;;;;;;;;7.00;5.50;;;28.54;101178.85;;;;117118;1191;25495;-64
2022/09/02 11:40:04;;;;;;;;;8.33;6.00;;;28.41;101169.05;;;;117304;1191;25578;-68
2022/09/02 11:43:22;;;;;;;;;9.50;5.75;;;28.53;101169.79;;;;117043;1193;24818;-62
2022/09/02 11:46:24;;;;;;;;;37.00;30.33;;;28.47;101172.95;;;;117072;1193;25198;-63
2022/09/02 11:48:59;;;;;;;;;31.67;24.00;;;28.58;101171.39;;;;117062;1193;24853;-61
2022/09/02 11:52:05;;;;;;;;;22.75;16.75;;;28.64;101165.88;;;;117090;1191;25433;-64
2022/09/02 11:54:46;;;;;;;;;18.00;17.00;;;28.55;101180.08;;;;117215;1191;25289;-63
2022/09/02 11:57:23;;;;;;;;;15.33;13.67;;;28.48;101162.05;;;;117401;1190;25287;-64
2022/09/02 11:59:51;;;;;;;;;22.50;15.75;;;28.48;101161.52;;;;117150;1191;24907;-63
2022/09/02 12:02:42;;;;;;;;;15.67;10.00;;;28.41;101159.66;;;;117026;1191;25057;-60
2022/09/02 12:05:29;;;;;;;;;14.00;12.00;;;28.56;101153.83;;;;117123;1191;24921;-57
2022/09/02 12:08:41;;;;;;;;;19.75;15.75;;;28.58;101158.84;;;;117410;1191;24960;-59
2022/09/02 12:11:46;;;;;;;;;20.00;12.25;;;28.70;101149.42;;;;117334;1190;24750;-58
2022/09/02 12:14:24;;;;;;;;;16.00;11.75;;;28.75;101141.61;;;;116916;1194;24853;-58
2022/09/02 12:17:07;;;;;;;;;18.25;14.00;;;28.70;101145.44;;;;117111;1192;25825;-56
2022/09/02 12:19:40;;;;;;;;;14.00;11.00;;;28.68;101145.09;;;;117050;1192;25347;-61
2022/09/02 12:23:52;;;;;;;;;17.25;11.75;;;28.60;101144.52;;;;115975;1207;24551;-57
2022/09/02 12:26:28;;;;;;;;;15.25;11.50;;;28.77;101146.41;;;;117026;1194;24688;-58
2022/09/02 12:29:19;;;;;;;;;14.75;10.00;;;28.83;101145.59;;;;116864;1194;24732;-55
2022/09/02 12:31:50;;;;;;;;;12.75;10.00;;;28.92;101144.00;;;;116783;1196;25557;-60
2022/09/02 12:34:24;;;;;;;;;11.25;8.00;;;28.83;101148.17;;;;116815;1195;25414;-59